Time;durP1;ratioP1;P1;durP2;ratioP2;P2;SDS_P1;SDS_P2;PMS_P1;PMS_P2;Temp;Humidity;BMP_temperature;BMP_pressure;BME280_temperature;BME280_humidity;BME280_pressure;Samples;Min_cycle;Max_cycle;Signal;HPM_P1;HPM_P2
2024/03/24 00:00:29;;;;;;;13.55;5.80;;;5.50;99.90;;;;;;5086758;28;20090;-68
2024/03/24 00:02:54;;;;;;;11.70;5.82;;;5.50;99.90;;;;;;5085762;28;20564;-68
2024/03/24 00:05:20;;;;;;;13.98;6.47;;;5.50;99.90;;;;;;5087357;28;20043;-68
2024/03/24 00:07:45;;;;;;;14.93;7.28;;;5.60;99.90;;;;;;5059894;28;20031;-68
2024/03/24 00:10:12;;;;;;;13.07;6.05;;;5.50;99.90;;;;;;5086924;28;20557;-68
2024/03/24 00:12:38;;;;;;;10.18;5.40;;;5.50;99.90;;;;;;5080829;28;20040;-68
2024/03/24 00:15:04;;;;;;;11.00;6.20;;;5.60;99.90;;;;;;5087037;28;20039;-68
2024/03/24 00:17:29;;;;;;;9.65;6.00;;;5.60;99.90;;;;;;5086536;28;20020;-68
2024/03/24 00:19:55;;;;;;;13.25;6.53;;;5.50;99.90;;;;;;5059777;28;20051;-68
2024/03/24 00:22:20;;;;;;;13.93;5.88;;;5.60;99.90;;;;;;5081741;28;20009;-68
2024/03/24 00:24:46;;;;;;;10.38;6.00;;;5.60;99.90;;;;;;5066520;28;20538;-68
2024/03/24 00:27:12;;;;;;;11.57;5.90;;;5.60;99.90;;;;;;5086185;28;20028;-68
2024/03/24 00:29:38;;;;;;;12.55;5.90;;;5.50;99.90;;;;;;5064991;28;20031;-68
2024/03/24 00:32:04;;;;;;;10.13;6.13;;;5.60;99.90;;;;;;5086966;28;20044;-68
2024/03/24 00:34:30;;;;;;;11.88;6.82;;;5.60;99.90;;;;;;5087662;28;20034;-68
2024/03/24 00:36:55;;;;;;;14.52;6.47;;;5.60;99.90;;;;;;5068880;28;20396;-68
2024/03/24 00:39:21;;;;;;;12.65;6.35;;;5.60;99.90;;;;;;5087677;28;20518;-68
2024/03/24 00:41:46;;;;;;;11.30;6.45;;;5.60;99.90;;;;;;5081055;28;20103;-68
2024/03/24 00:44:12;;;;;;;12.45;6.63;;;5.60;99.90;;;;;;5084932;28;20032;-68
2024/03/24 00:46:37;;;;;;;10.15;6.82;;;5.60;99.90;;;;;;5069051;28;20040;-68
2024/03/24 00:49:03;;;;;;;12.88;7.55;;;5.60;99.90;;;;;;5085176;28;20536;-68
2024/03/24 00:51:29;;;;;;;15.43;7.82;;;5.60;99.90;;;;;;5070689;28;20043;-68
2024/03/24 00:53:55;;;;;;;11.55;7.03;;;5.60;99.90;;;;;;5085852;28;20389;-68
2024/03/24 00:56:20;;;;;;;21.20;8.65;;;5.60;99.90;;;;;;5087062;28;20111;-68
2024/03/24 00:58:46;;;;;;;11.80;7.28;;;5.60;99.90;;;;;;5086434;28;20032;-68
2024/03/24 01:01:11;;;;;;;10.60;7.20;;;5.60;99.90;;;;;;5087149;28;20391;-68
2024/03/24 01:03:37;;;;;;;14.90;8.02;;;5.60;99.90;;;;;;5085266;28;20035;-68
2024/03/24 01:06:04;;;;;;;13.65;7.55;;;5.60;99.90;;;;;;5069258;28;20079;-68
2024/03/24 01:08:30;;;;;;;11.50;7.38;;;5.50;99.90;;;;;;5075942;28;20074;-68
2024/03/24 01:10:55;;;;;;;11.63;7.78;;;5.50;99.90;;;;;;5075791;28;20028;-68
2024/03/24 01:13:22;;;;;;;15.07;6.88;;;5.50;99.90;;;;;;5068038;28;20036;-68
2024/03/24 01:15:47;;;;;;;13.63;7.63;;;5.50;99.90;;;;;;5086824;28;20028;-68
2024/03/24 01:18:13;;;;;;;16.15;7.35;;;5.50;99.90;;;;;;5086664;28;20063;-68
2024/03/24 01:20:39;;;;;;;13.15;7.07;;;5.50;99.90;;;;;;5080163;28;20103;-68
2024/03/24 01:23:04;;;;;;;10.63;7.18;;;5.50;99.90;;;;;;5082620;28;20036;-68
2024/03/24 01:25:31;;;;;;;12.93;7.15;;;5.50;99.90;;;;;;5086677;28;20072;-68
2024/03/24 01:27:57;;;;;;;12.75;7.13;;;5.40;99.90;;;;;;5085269;28;20031;-68
2024/03/24 01:30:24;;;;;;;15.25;8.20;;;5.40;99.90;;;;;;5059083;28;20035;-68
2024/03/24 01:32:49;;;;;;;14.27;8.60;;;5.40;99.90;;;;;;5077771;28;20035;-68
2024/03/24 01:35:15;;;;;;;16.10;8.32;;;5.40;99.90;;;;;;5080629;28;20504;-68
2024/03/24 01:37:41;;;;;;;14.45;8.15;;;5.40;99.90;;;;;;5085190;28;20027;-68
2024/03/24 01:40:07;;;;;;;18.52;8.95;;;5.40;99.90;;;;;;5088903;28;20033;-68
2024/03/24 01:42:33;;;;;;;21.35;8.63;;;5.40;99.90;;;;;;5070643;28;20075;-68
2024/03/24 01:44:59;;;;;;;15.77;8.43;;;5.40;99.90;;;;;;5086847;28;20110;-68
2024/03/24 01:47:24;;;;;;;17.15;8.00;;;5.40;99.90;;;;;;5090163;28;20032;-68
2024/03/24 01:49:50;;;;;;;16.23;8.80;;;5.40;99.90;;;;;;5089790;28;20024;-68
2024/03/24 01:52:16;;;;;;;13.45;8.68;;;5.40;99.90;;;;;;5087250;28;20110;-68
2024/03/24 01:54:42;;;;;;;17.38;9.05;;;5.40;99.90;;;;;;5082457;28;20558;-68
2024/03/24 01:57:08;;;;;;;15.25;8.77;;;5.40;99.90;;;;;;5081561;28;20062;-68
2024/03/24 01:59:34;;;;;;;11.88;8.15;;;5.40;99.90;;;;;;5081852;28;20641;-68
2024/03/24 02:02:00;;;;;;;14.70;8.38;;;5.40;99.90;;;;;;5082294;28;20388;-68
2024/03/24 02:04:26;;;;;;;13.43;9.35;;;5.30;99.90;;;;;;5071251;28;20017;-68
2024/03/24 02:06:51;;;;;;;14.50;9.10;;;5.40;99.90;;;;;;5088675;28;20039;-68
2024/03/24 02:09:17;;;;;;;19.70;8.73;;;5.40;99.90;;;;;;5088706;28;20397;-68
2024/03/24 02:11:44;;;;;;;16.00;8.63;;;5.40;99.90;;;;;;5089213;28;20137;-68
2024/03/24 02:14:10;;;;;;;16.60;9.30;;;5.40;99.90;;;;;;5086195;28;20036;-68
2024/03/24 02:16:35;;;;;;;25.67;9.10;;;5.40;99.90;;;;;;5079645;28;20028;-68
2024/03/24 02:19:03;;;;;;;16.27;9.82;;;5.40;99.90;;;;;;5084099;28;20051;-68
2024/03/24 02:21:29;;;;;;;16.80;9.30;;;5.40;99.90;;;;;;5089495;28;20047;-68
2024/03/24 02:23:54;;;;;;;16.27;9.60;;;5.40;99.90;;;;;;5084346;28;20028;-68
2024/03/24 02:26:20;;;;;;;18.13;9.88;;;5.40;99.90;;;;;;5083338;28;20035;-68
2024/03/24 02:28:46;;;;;;;17.25;9.23;;;5.40;99.90;;;;;;5088779;28;20035;-68
2024/03/24 02:31:11;;;;;;;17.52;9.85;;;5.50;99.90;;;;;;5085471;28;20024;-68
2024/03/24 02:33:37;;;;;;;18.20;9.68;;;5.40;99.90;;;;;;5073277;28;20443;-68
2024/03/24 02:36:03;;;;;;;15.38;9.60;;;5.40;99.90;;;;;;5088852;28;20035;-68
2024/03/24 02:38:29;;;;;;;18.30;9.50;;;5.40;99.90;;;;;;5089484;28;20024;-68
2024/03/24 02:40:54;;;;;;;19.73;9.45;;;5.40;99.90;;;;;;5081931;28;20036;-68
2024/03/24 02:43:20;;;;;;;16.80;9.30;;;5.40;99.90;;;;;;5089615;28;20225;-68
2024/03/24 02:45:55;;;;;;;14.70;9.32;;;5.50;99.90;;;;;;5088496;28;20119;-68
2024/03/24 02:48:20;;;;;;;17.52;9.00;;;5.50;99.90;;;;;;5078812;28;20033;-68
2024/03/24 02:50:46;;;;;;;14.55;8.52;;;5.50;99.90;;;;;;5082163;28;20040;-68
2024/03/24 02:53:11;;;;;;;15.23;9.18;;;5.60;99.90;;;;;;5088462;28;20048;-68
2024/03/24 02:55:44;;;;;;;19.45;8.55;;;5.60;99.90;;;;;;5088195;28;20614;-68
2024/03/24 02:58:10;;;;;;;16.48;9.40;;;5.60;99.90;;;;;;5083302;28;20020;-68
2024/03/24 03:00:36;;;;;;;14.20;8.32;;;5.60;99.90;;;;;;5082840;28;20028;-68
2024/03/24 03:03:01;;;;;;;11.63;7.90;;;5.70;99.90;;;;;;5086990;28;20493;-68
2024/03/24 03:05:27;;;;;;;14.57;7.55;;;5.70;99.90;;;;;;5091720;28;20043;-68
2024/03/24 03:07:53;;;;;;;14.48;8.35;;;5.70;99.90;;;;;;5089050;28;20024;-68
2024/03/24 03:10:19;;;;;;;14.50;7.85;;;5.70;99.90;;;;;;5094731;28;20059;-68
2024/03/24 03:12:44;;;;;;;16.67;7.68;;;5.80;99.90;;;;;;5071338;28;20028;-68
2024/03/24 03:15:15;;;;;;;17.08;7.93;;;5.70;99.90;;;;;;5086365;28;20077;-68
2024/03/24 03:17:40;;;;;;;17.23;7.50;;;5.80;99.90;;;;;;5088368;28;20047;-68
2024/03/24 03:20:10;;;;;;;14.93;7.47;;;5.80;99.90;;;;;;5085654;28;20397;-68
2024/03/24 03:22:35;;;;;;;13.00;7.75;;;5.80;99.90;;;;;;5072890;28;20043;-68
2024/03/24 03:25:01;;;;;;;16.67;7.80;;;5.80;99.90;;;;;;5088187;28;20464;-68
2024/03/24 03:27:26;;;;;;;15.55;7.53;;;5.90;99.90;;;;;;5083754;28;20136;-68
2024/03/24 03:29:52;;;;;;;14.10;7.03;;;5.90;99.90;;;;;;5087150;28;20024;-68
2024/03/24 03:32:17;;;;;;;17.40;7.22;;;5.90;99.90;;;;;;5088504;28;20063;-68
2024/03/24 03:34:43;;;;;;;15.25;7.18;;;6.00;99.90;;;;;;5086292;28;20092;-68
2024/03/24 03:37:09;;;;;;;14.43;6.75;;;6.00;99.90;;;;;;5088234;28;20448;-68
2024/03/24 03:39:34;;;;;;;12.57;7.45;;;6.00;99.90;;;;;;5061278;28;20413;-68
2024/03/24 03:42:00;;;;;;;16.80;8.00;;;6.00;99.90;;;;;;5074452;28;20050;-68
2024/03/24 03:44:25;;;;;;;14.35;6.97;;;6.10;99.90;;;;;;5078225;28;20025;-68
2024/03/24 03:46:51;;;;;;;16.55;7.40;;;6.10;99.90;;;;;;5080259;28;20477;-68
2024/03/24 03:49:17;;;;;;;13.90;7.53;;;6.10;99.90;;;;;;5081963;28;20024;-68
2024/03/24 03:51:44;;;;;;;12.95;7.65;;;6.10;99.90;;;;;;5070567;28;20104;-68
2024/03/24 03:54:11;;;;;;;15.02;7.43;;;6.20;99.90;;;;;;5085943;28;20029;-68
2024/03/24 03:56:37;;;;;;;14.40;7.88;;;6.20;99.90;;;;;;5087451;28;20051;-68
2024/03/24 03:59:03;;;;;;;14.75;7.80;;;6.10;99.90;;;;;;5085997;28;20036;-68
2024/03/24 04:01:29;;;;;;;16.20;7.43;;;6.10;99.90;;;;;;5079684;28;20036;-68
2024/03/24 04:03:56;;;;;;;12.30;7.45;;;6.10;99.90;;;;;;5076406;28;20082;-68
2024/03/24 04:06:22;;;;;;;15.90;6.70;;;6.10;99.90;;;;;;5082572;28;20040;-68
2024/03/24 04:08:48;;;;;;;12.93;6.80;;;6.10;99.90;;;;;;5081777;28;20102;-68
2024/03/24 04:11:14;;;;;;;14.95;7.15;;;6.10;99.90;;;;;;5084618;28;20032;-68
2024/03/24 04:13:40;;;;;;;15.82;6.18;;;6.10;99.90;;;;;;5078505;28;20023;-68
2024/03/24 04:16:06;;;;;;;11.02;6.82;;;6.10;99.90;;;;;;5071229;28;20035;-68
2024/03/24 04:18:32;;;;;;;14.65;6.78;;;6.10;99.90;;;;;;5086965;28;20386;-68
2024/03/24 04:21:02;;;;;;;13.70;6.68;;;6.10;99.90;;;;;;5086948;28;20037;-68
2024/03/24 04:23:28;;;;;;;18.55;7.10;;;6.10;99.90;;;;;;5084138;28;20028;-68
2024/03/24 04:25:54;;;;;;;13.82;6.15;;;6.10;99.90;;;;;;5075216;28;20032;-68
2024/03/24 04:28:20;;;;;;;10.50;6.18;;;6.10;99.90;;;;;;5078571;28;20019;-68
2024/03/24 04:30:45;;;;;;;12.63;5.97;;;6.10;99.90;;;;;;5083874;28;20115;-68
2024/03/24 04:33:11;;;;;;;12.00;6.93;;;6.10;99.90;;;;;;5071191;28;20028;-68
2024/03/24 04:35:36;;;;;;;11.38;6.38;;;6.10;99.90;;;;;;5079865;28;20032;-68
2024/03/24 04:38:03;;;;;;;18.05;7.18;;;6.10;99.90;;;;;;5086817;28;20572;-68
2024/03/24 04:40:29;;;;;;;13.32;6.35;;;6.10;99.90;;;;;;5087499;28;20024;-68
2024/03/24 04:42:54;;;;;;;12.80;6.00;;;6.10;99.90;;;;;;5086659;28;20111;-68
2024/03/24 04:45:21;;;;;;;10.68;6.32;;;6.20;99.90;;;;;;5086394;28;20089;-68
2024/03/24 04:47:47;;;;;;;11.55;6.35;;;6.30;99.90;;;;;;5079904;28;20112;-68
2024/03/24 04:50:13;;;;;;;14.68;6.20;;;6.20;99.90;;;;;;5079566;28;20100;-68
2024/03/24 04:52:38;;;;;;;14.63;6.57;;;6.20;99.90;;;;;;5084052;28;20453;-68
2024/03/24 04:55:04;;;;;;;11.07;6.55;;;6.20;99.90;;;;;;5087363;28;20048;-68
2024/03/24 04:57:30;;;;;;;9.60;5.90;;;6.10;99.90;;;;;;5067807;28;20028;-68
2024/03/24 04:59:55;;;;;;;10.82;6.05;;;6.10;99.90;;;;;;5086764;28;20036;-68
2024/03/24 05:02:21;;;;;;;10.73;5.30;;;6.00;99.90;;;;;;5082786;28;20028;-68
2024/03/24 05:04:49;;;;;;;12.85;5.95;;;5.90;99.90;;;;;;5057058;28;20103;-68
2024/03/24 05:07:14;;;;;;;;;;;5.80;99.90;;;;;;5078717;28;20060;-68
2024/03/24 05:09:42;;;;;;;9.35;5.30;;;5.80;99.90;;;;;;5062157;28;20029;-68
2024/03/24 05:12:08;;;;;;;10.88;5.80;;;5.80;99.90;;;;;;5080193;28;20036;-68
2024/03/24 05:14:35;;;;;;;8.30;5.10;;;5.90;99.90;;;;;;5090489;28;20492;-66
2024/03/24 05:17:01;;;;;;;12.38;5.60;;;5.80;99.90;;;;;;5084447;28;20457;-66
2024/03/24 05:19:27;;;;;;;9.10;4.97;;;5.70;99.90;;;;;;5090778;28;20545;-66
2024/03/24 05:21:53;;;;;;;9.82;5.47;;;5.70;99.90;;;;;;5090961;28;20024;-66
2024/03/24 05:24:18;;;;;;;15.07;6.15;;;5.80;99.90;;;;;;5090726;28;20381;-66
2024/03/24 05:26:44;;;;;;;9.93;5.53;;;5.80;99.90;;;;;;5084307;28;20032;-64
2024/03/24 05:29:09;;;;;;;15.52;6.30;;;5.80;99.90;;;;;;5076301;28;20200;-66
2024/03/24 05:31:35;;;;;;;12.50;5.45;;;5.80;99.90;;;;;;5080693;28;20020;-66
2024/03/24 05:34:01;;;;;;;13.85;6.53;;;5.80;99.90;;;;;;5083777;28;20104;-66
2024/03/24 05:36:27;;;;;;;15.32;6.78;;;5.80;99.90;;;;;;5084387;28;20401;-65
2024/03/24 05:38:53;;;;;;;16.67;5.90;;;5.80;99.90;;;;;;5096603;28;20036;-66
2024/03/24 05:41:19;;;;;;;10.00;6.32;;;5.90;99.90;;;;;;5088287;28;20054;-66
2024/03/24 05:43:44;;;;;;;10.60;6.15;;;5.90;99.90;;;;;;5090013;28;20016;-65
2024/03/24 05:46:10;;;;;;;15.23;7.50;;;5.90;99.90;;;;;;5088609;28;20406;-66
2024/03/24 05:48:35;;;;;;;13.43;6.60;;;5.80;99.90;;;;;;5074854;28;20028;-66
2024/03/24 05:51:06;;;;;;;12.82;6.53;;;5.90;99.90;;;;;;5078410;28;20396;-66
2024/03/24 05:53:34;;;;;;;10.40;6.22;;;5.90;99.90;;;;;;5085251;28;20031;-66
2024/03/24 05:56:00;;;;;;;12.60;6.80;;;6.00;99.90;;;;;;5089489;28;20036;-66
2024/03/24 05:58:27;;;;;;;10.07;5.75;;;5.90;99.90;;;;;;5084611;28;20107;-66
2024/03/24 06:00:53;;;;;;;11.10;6.18;;;5.90;99.90;;;;;;5089669;28;20024;-66
2024/03/24 06:03:18;;;;;;;10.07;5.75;;;5.90;99.90;;;;;;5085040;28;20611;-66
2024/03/24 06:05:46;;;;;;;11.30;6.65;;;5.90;99.90;;;;;;5089615;28;20039;-66
2024/03/24 06:08:12;;;;;;;11.45;6.07;;;5.90;99.90;;;;;;5082800;28;20024;-66
2024/03/24 06:10:40;;;;;;;11.35;6.60;;;5.90;99.90;;;;;;5088985;28;20042;-66
2024/03/24 06:13:06;;;;;;;11.18;6.13;;;5.90;99.90;;;;;;5083312;28;20040;-66
2024/03/24 06:15:31;;;;;;;12.18;6.38;;;5.90;99.90;;;;;;5082894;28;20489;-66
2024/03/24 06:17:59;;;;;;;12.52;6.78;;;6.00;99.90;;;;;;5082884;28;20082;-66
2024/03/24 06:20:25;;;;;;;13.60;6.90;;;5.90;99.90;;;;;;5084858;28;20031;-66
2024/03/24 06:22:51;;;;;;;11.63;6.60;;;5.90;99.90;;;;;;5085404;28;20020;-65
2024/03/24 06:25:17;;;;;;;10.73;6.47;;;5.90;99.90;;;;;;5083619;28;20373;-66
2024/03/24 06:27:42;;;;;;;11.30;5.70;;;5.90;99.90;;;;;;5089036;28;20031;-65
2024/03/24 06:30:08;;;;;;;13.20;6.68;;;5.90;99.90;;;;;;5089330;28;20437;-66
2024/03/24 06:32:34;;;;;;;9.23;5.78;;;5.90;99.90;;;;;;5089046;28;20028;-65
2024/03/24 06:34:59;;;;;;;9.43;6.15;;;5.90;99.90;;;;;;5076407;28;20035;-66
2024/03/24 06:37:25;;;;;;;9.52;6.18;;;5.80;99.90;;;;;;5065348;28;20020;-66
2024/03/24 06:39:51;;;;;;;10.57;6.13;;;5.80;99.90;;;;;;5075485;28;20441;-66
2024/03/24 06:42:17;;;;;;;10.73;5.78;;;5.80;99.90;;;;;;5078990;28;20081;-66
2024/03/24 06:44:44;;;;;;;7.95;5.60;;;5.90;99.90;;;;;;5088467;28;20481;-66
2024/03/24 06:47:10;;;;;;;10.77;5.72;;;5.80;99.90;;;;;;5086466;28;20035;-66
2024/03/24 06:49:37;;;;;;;9.10;5.88;;;5.80;99.90;;;;;;5082535;28;20028;-65
2024/03/24 06:52:03;;;;;;;14.10;5.87;;;5.70;99.90;;;;;;5075318;28;20493;-65
2024/03/24 06:54:29;;;;;;;13.27;7.07;;;5.80;99.90;;;;;;5078646;28;20039;-66
2024/03/24 06:56:54;;;;;;;12.00;5.57;;;5.80;99.90;;;;;;5081655;28;20067;-66
2024/03/24 06:59:20;;;;;;;9.73;6.35;;;5.70;99.90;;;;;;5076774;28;20050;-66
2024/03/24 07:01:45;;;;;;;9.43;5.95;;;5.70;99.90;;;;;;5066822;28;20012;-64
2024/03/24 07:04:11;;;;;;;13.48;6.85;;;5.70;99.90;;;;;;5080984;28;20485;-66
2024/03/24 07:06:37;;;;;;;10.88;6.65;;;5.80;99.90;;;;;;5088256;28;20048;-66
2024/03/24 07:09:02;;;;;;;11.77;7.15;;;5.70;99.90;;;;;;5086929;28;20021;-66
2024/03/24 07:11:28;;;;;;;11.20;7.10;;;5.70;99.90;;;;;;5085948;28;20026;-65
2024/03/24 07:13:53;;;;;;;14.27;7.25;;;5.80;99.90;;;;;;5082542;28;20082;-65
2024/03/24 07:16:19;;;;;;;12.57;7.65;;;5.80;99.90;;;;;;5085753;28;20028;-66
2024/03/24 07:18:44;;;;;;;12.52;7.82;;;5.80;99.90;;;;;;5084000;28;20577;-66
2024/03/24 07:21:10;;;;;;;13.82;8.00;;;5.80;99.90;;;;;;5087168;28;20493;-66
2024/03/24 07:23:35;;;;;;;13.18;8.07;;;5.90;99.90;;;;;;5082164;28;20055;-65
2024/03/24 07:26:03;;;;;;;17.38;8.52;;;5.90;99.90;;;;;;5087123;28;20036;-66
2024/03/24 07:28:28;;;;;;;15.95;8.38;;;5.90;99.90;;;;;;5084288;28;20412;-66
2024/03/24 07:30:54;;;;;;;14.27;9.07;;;6.00;99.90;;;;;;5073534;28;20504;-66
2024/03/24 07:33:19;;;;;;;16.88;8.10;;;6.00;99.90;;;;;;5083131;28;20032;-66
2024/03/24 07:35:45;;;;;;;15.45;9.30;;;6.00;99.90;;;;;;5083732;28;20024;-64
2024/03/24 07:38:11;;;;;;;16.65;9.15;;;6.00;99.90;;;;;;5068812;28;20085;-66
2024/03/24 07:40:37;;;;;;;13.05;8.63;;;6.10;99.90;;;;;;5082584;28;20020;-65
2024/03/24 07:43:03;;;;;;;16.80;8.48;;;6.20;99.90;;;;;;5087107;28;20072;-66
2024/03/24 07:45:31;;;;;;;17.33;8.82;;;6.20;99.90;;;;;;5082974;28;20032;-66
2024/03/24 07:47:56;;;;;;;16.95;8.55;;;6.30;99.90;;;;;;5065738;28;20099;-65
2024/03/24 07:50:22;;;;;;;16.13;9.25;;;6.30;99.90;;;;;;5080431;28;20125;-66
2024/03/24 07:52:47;;;;;;;16.95;8.98;;;6.30;99.90;;;;;;5087014;28;20095;-66
2024/03/24 07:55:13;;;;;;;14.30;9.32;;;6.30;99.90;;;;;;5087042;28;20137;-65
2024/03/24 07:57:39;;;;;;;15.23;9.10;;;6.40;99.90;;;;;;5087620;28;20127;-66
2024/03/24 08:00:06;;;;;;;15.15;8.40;;;6.40;99.90;;;;;;5085572;28;20055;-65
2024/03/24 08:02:32;;;;;;;14.65;7.78;;;6.50;99.90;;;;;;5074673;28;20025;-66
2024/03/24 08:04:58;;;;;;;13.27;8.30;;;6.50;99.90;;;;;;5079991;28;20055;-66
2024/03/24 08:07:24;;;;;;;14.55;8.05;;;6.50;99.90;;;;;;5069784;28;20477;-66
2024/03/24 08:09:50;;;;;;;10.27;6.82;;;6.50;99.90;;;;;;5079036;28;20514;-66
2024/03/24 08:12:16;;;;;;;9.25;6.18;;;6.50;99.90;;;;;;5092094;28;20595;-66
2024/03/24 08:14:42;;;;;;;8.63;5.38;;;6.50;99.90;;;;;;5092941;28;20659;-66
2024/03/24 08:17:08;;;;;;;7.90;4.85;;;6.50;99.90;;;;;;5087310;28;20040;-66
2024/03/24 08:19:34;;;;;;;6.72;4.32;;;6.40;99.90;;;;;;5072333;28;20027;-66
2024/03/24 08:22:00;;;;;;;6.38;4.72;;;6.50;99.90;;;;;;5084104;28;20614;-65
2024/03/24 08:24:25;;;;;;;7.50;4.28;;;6.50;99.90;;;;;;5087418;28;20055;-66
2024/03/24 08:26:51;;;;;;;9.85;4.93;;;6.50;99.90;;;;;;5086010;28;20035;-66
2024/03/24 08:29:16;;;;;;;9.10;5.20;;;6.50;99.90;;;;;;5076327;28;20170;-65
2024/03/24 08:31:42;;;;;;;6.78;4.55;;;6.50;99.90;;;;;;5074951;28;20504;-66
2024/03/24 08:34:08;;;;;;;7.03;4.47;;;6.50;99.90;;;;;;5070726;28;20047;-66
2024/03/24 08:36:33;;;;;;;7.30;4.78;;;6.50;99.90;;;;;;5087151;28;20066;-65
2024/03/24 08:38:59;;;;;;;6.68;4.30;;;6.50;99.90;;;;;;5086991;28;20482;-66
2024/03/24 08:41:24;;;;;;;7.80;5.25;;;6.50;99.90;;;;;;5087097;28;20028;-66
2024/03/24 08:43:50;;;;;;;7.35;4.78;;;6.60;99.90;;;;;;5085538;28;20028;-66
2024/03/24 08:46:16;;;;;;;6.07;4.50;;;6.60;99.90;;;;;;5087169;28;20023;-66
2024/03/24 08:48:41;;;;;;;9.00;4.10;;;6.50;99.90;;;;;;5090420;28;20534;-66
2024/03/24 08:51:07;;;;;;;5.35;4.00;;;6.60;99.90;;;;;;5075541;28;20032;-66
2024/03/24 08:53:33;;;;;;;6.90;4.38;;;6.60;99.90;;;;;;5079716;28;20647;-66
2024/03/24 08:55:58;;;;;;;5.85;4.40;;;6.70;99.90;;;;;;5086452;28;20051;-66
2024/03/24 08:58:24;;;;;;;5.57;4.20;;;6.70;99.90;;;;;;5091941;28;20020;-66
2024/03/24 09:00:53;;;;;;;10.63;4.65;;;6.70;99.90;;;;;;5091279;28;20477;-66
2024/03/24 09:03:19;;;;;;;8.40;4.50;;;6.70;99.90;;;;;;5087318;28;20086;-65
2024/03/24 09:05:44;;;;;;;7.28;3.65;;;6.70;99.90;;;;;;5090256;28;20507;-66
2024/03/24 09:08:10;;;;;;;5.35;3.78;;;6.70;99.90;;;;;;5082272;28;20031;-65
2024/03/24 09:10:35;;;;;;;7.90;4.20;;;6.80;99.90;;;;;;5073870;28;20019;-66
2024/03/24 09:13:01;;;;;;;6.68;4.30;;;6.80;99.90;;;;;;5083941;28;20024;-66
2024/03/24 09:15:27;;;;;;;8.65;4.18;;;6.90;99.90;;;;;;5070302;28;20029;-66
2024/03/24 09:17:52;;;;;;;6.70;3.95;;;7.00;99.90;;;;;;5088835;28;20624;-66
2024/03/24 09:20:19;;;;;;;5.63;3.60;;;7.10;99.90;;;;;;5075274;28;20765;-66
2024/03/24 09:22:45;;;;;;;4.57;3.53;;;7.10;99.90;;;;;;5069201;28;20115;-66
2024/03/24 09:25:11;;;;;;;8.55;3.60;;;7.10;99.90;;;;;;5083706;28;20685;-65
2024/03/24 09:27:36;;;;;;;9.10;3.15;;;7.30;99.90;;;;;;5067273;28;20020;-65
2024/03/24 09:30:02;;;;;;;8.00;3.38;;;7.40;99.90;;;;;;5070375;28;20543;-66
2024/03/24 09:32:28;;;;;;;3.95;2.97;;;7.40;99.90;;;;;;5064499;28;20509;-65
2024/03/24 09:34:53;;;;;;;6.78;2.85;;;7.50;99.90;;;;;;5088142;28;20016;-65
2024/03/24 09:37:19;;;;;;;4.38;2.53;;;7.60;99.90;;;;;;5078258;28;20413;-65
2024/03/24 09:39:44;;;;;;;10.75;3.58;;;7.60;99.90;;;;;;5078212;28;20028;-65
2024/03/24 09:42:13;;;;;;;4.70;2.47;;;7.70;99.90;;;;;;5087872;28;20090;-66
2024/03/24 09:44:41;;;;;;;2.42;1.70;;;7.80;99.90;;;;;;5079392;28;20024;-66
2024/03/24 09:47:06;;;;;;;3.63;2.20;;;7.90;99.90;;;;;;5081233;28;20039;-66
2024/03/24 09:49:34;;;;;;;5.95;1.90;;;7.90;99.90;;;;;;5076661;28;20017;-66
2024/03/24 09:52:01;;;;;;;6.07;1.58;;;7.90;99.90;;;;;;5089416;28;20593;-66
2024/03/24 09:54:26;;;;;;;8.45;1.88;;;8.00;99.90;;;;;;5085906;28;20040;-66
2024/03/24 09:56:52;;;;;;;5.63;2.10;;;8.10;99.90;;;;;;5089753;28;20039;-66
2024/03/24 09:59:19;;;;;;;6.93;1.73;;;8.20;99.90;;;;;;5075145;28;20032;-66
2024/03/24 10:01:47;;;;;;;6.38;1.67;;;8.30;99.90;;;;;;5073081;28;20025;-66
2024/03/24 10:04:15;;;;;;;6.55;1.98;;;8.40;99.90;;;;;;5081820;28;20020;-66
2024/03/24 10:06:41;;;;;;;6.22;1.73;;;8.50;99.90;;;;;;5083473;28;20041;-66
2024/03/24 10:09:07;;;;;;;5.35;2.25;;;8.60;99.90;;;;;;5080863;28;20115;-66
2024/03/24 10:11:33;;;;;;;3.20;1.77;;;8.60;99.90;;;;;;5081821;28;20036;-66
2024/03/24 10:14:01;;;;;;;6.80;2.13;;;8.60;99.90;;;;;;5085276;28;20028;-66
2024/03/24 10:16:27;;;;;;;6.55;1.85;;;8.70;99.90;;;;;;5083638;28;20031;-66
2024/03/24 10:18:53;;;;;;;6.72;1.63;;;8.70;99.90;;;;;;5076299;28;20028;-66
2024/03/24 10:21:20;;;;;;;10.02;1.63;;;8.70;99.90;;;;;;5077858;28;20622;-66
2024/03/24 10:23:46;;;;;;;7.85;1.63;;;8.70;99.90;;;;;;5083113;28;20032;-66
2024/03/24 10:26:22;;;;;;;3.28;1.30;;;8.70;99.90;;;;;;5097272;28;20036;-66
2024/03/24 10:28:51;;;;;;;10.05;1.80;;;8.70;99.90;;;;;;5071377;28;20048;-66
2024/03/24 10:31:17;;;;;;;3.55;1.50;;;8.80;99.90;;;;;;5076081;28;20024;-66
2024/03/24 10:33:46;;;;;;;2.15;1.25;;;8.90;99.90;;;;;;5083445;28;20357;-66
2024/03/24 10:36:12;;;;;;;5.28;1.67;;;8.90;99.90;;;;;;5088689;28;20393;-66
2024/03/24 10:38:38;;;;;;;2.40;1.20;;;8.90;99.90;;;;;;5080982;28;20029;-65
2024/03/24 10:41:05;;;;;;;6.20;1.42;;;8.90;99.90;;;;;;5086503;28;20028;-66
2024/03/24 10:43:31;;;;;;;1.63;1.13;;;8.90;99.90;;;;;;5085181;28;20477;-66
2024/03/24 10:45:58;;;;;;;5.65;1.65;;;8.90;99.90;;;;;;5087905;28;20130;-66
2024/03/24 10:48:27;;;;;;;4.63;1.30;;;8.80;99.90;;;;;;5084559;28;20028;-65
2024/03/24 10:50:55;;;;;;;4.50;1.75;;;8.80;99.90;;;;;;5087012;28;20089;-66
2024/03/24 10:53:23;;;;;;;5.85;1.55;;;8.80;99.90;;;;;;5082920;28;20024;-66
2024/03/24 10:55:55;;;;;;;10.07;1.70;;;8.80;99.90;;;;;;5084763;28;20071;-66
2024/03/24 10:58:21;;;;;;;12.10;1.88;;;8.80;99.90;;;;;;5088774;28;20024;-66
2024/03/24 11:00:48;;;;;;;5.45;1.50;;;8.80;99.90;;;;;;5083075;28;20077;-66
2024/03/24 11:03:15;;;;;;;7.70;1.50;;;8.90;99.90;;;;;;5082069;28;20032;-66
2024/03/24 11:05:48;;;;;;;9.10;1.67;;;9.00;99.90;;;;;;5082832;28;20020;-66
2024/03/24 11:08:15;;;;;;;7.65;1.35;;;9.00;99.90;;;;;;5082768;28;20034;-66
2024/03/24 11:10:48;;;;;;;2.95;1.05;;;9.00;99.90;;;;;;5064660;28;20037;-66
2024/03/24 11:13:17;;;;;;;4.82;1.33;;;9.10;99.90;;;;;;5087785;28;20435;-66
2024/03/24 11:15:46;;;;;;;5.38;1.30;;;9.30;99.90;;;;;;5088273;28;20139;-66
2024/03/24 11:18:22;;;;;;;4.28;1.10;;;9.70;99.90;;;;;;5087014;28;20024;-66
2024/03/24 11:20:55;;;;;;;9.05;1.40;;;10.10;99.90;;;;;;5081091;28;20055;-66
2024/03/24 11:23:23;;;;;;;4.65;1.27;;;10.30;99.90;;;;;;5082572;28;20032;-66
2024/03/24 11:26:01;;;;;;;9.90;1.95;;;10.50;99.80;;;;;;5067755;28;20032;-66
2024/03/24 11:28:43;;;;;;;4.85;1.38;;;10.50;99.30;;;;;;5073381;28;20473;-66
2024/03/24 11:31:12;;;;;;;10.02;1.73;;;10.50;99.10;;;;;;5076708;28;20059;-66
2024/03/24 11:33:38;;;;;;;6.47;1.75;;;10.30;99.00;;;;;;5086773;28;20097;-66
2024/03/24 11:36:18;;;;;;;6.55;1.50;;;10.60;99.90;;;;;;5087921;28;20062;-66
2024/03/24 11:38:46;;;;;;;7.25;1.10;;;10.80;99.10;;;;;;5087445;28;20090;-66
2024/03/24 11:41:15;;;;;;;5.90;1.70;;;11.00;99.40;;;;;;5085510;28;20032;-66
2024/03/24 11:43:41;;;;;;;9.18;1.33;;;11.10;99.40;;;;;;5084851;28;20031;-66
2024/03/24 11:46:13;;;;;;;3.67;1.13;;;10.90;98.60;;;;;;5086520;28;20024;-66
2024/03/24 11:48:39;;;;;;;3.28;1.35;;;10.70;98.70;;;;;;5084489;28;20524;-66
2024/03/24 11:51:06;;;;;;;6.10;1.67;;;10.30;98.50;;;;;;5091527;28;20032;-66
2024/03/24 11:53:32;;;;;;;1.60;1.13;;;10.30;99.20;;;;;;5076712;28;20448;-66
2024/03/24 11:55:59;;;;;;;10.10;1.45;;;10.30;99.20;;;;;;5070691;28;20056;-66
2024/03/24 11:58:26;;;;;;;17.35;1.77;;;10.20;99.70;;;;;;5088566;28;20044;-66
2024/03/24 12:00:52;;;;;;;8.63;2.13;;;10.00;99.10;;;;;;5082218;28;20093;-66
2024/03/24 12:03:17;;;;;;;5.20;1.70;;;9.80;99.50;;;;;;5087666;28;20115;-66
2024/03/24 12:05:47;;;;;;;8.38;1.45;;;9.70;99.70;;;;;;5081486;28;20033;-66
2024/03/24 12:08:13;;;;;;;6.60;1.50;;;9.70;99.90;;;;;;5078554;28;20032;-66
2024/03/24 12:10:39;;;;;;;7.75;1.85;;;9.60;99.90;;;;;;5078062;28;20013;-66
2024/03/24 12:13:05;;;;;;;7.15;2.00;;;9.60;99.90;;;;;;5086279;28;20020;-66
2024/03/24 12:15:31;;;;;;;9.82;1.98;;;9.50;99.90;;;;;;5063532;28;20055;-65
2024/03/24 12:18:09;;;;;;;7.25;1.70;;;9.30;99.90;;;;;;5087204;28;20038;-66
2024/03/24 12:20:36;;;;;;;11.18;1.83;;;9.40;99.90;;;;;;5087392;28;20035;-66
2024/03/24 12:23:04;;;;;;;9.07;1.60;;;9.40;99.90;;;;;;5083227;28;20113;-66
2024/03/24 12:25:30;;;;;;;5.50;1.50;;;9.30;99.90;;;;;;5085674;28;20023;-66
2024/03/24 12:27:56;;;;;;;5.75;1.77;;;9.20;99.90;;;;;;5081520;28;20035;-65
2024/03/24 12:30:23;;;;;;;7.55;1.70;;;9.20;99.90;;;;;;5082113;28;20036;-66
2024/03/24 12:32:50;;;;;;;4.47;1.63;;;9.20;99.90;;;;;;5072103;28;20115;-66
2024/03/24 12:35:20;;;;;;;8.55;1.70;;;9.10;99.90;;;;;;5068498;28;20047;-65
2024/03/24 12:37:50;;;;;;;5.38;1.40;;;8.90;99.90;;;;;;5076027;28;20029;-66
2024/03/24 12:40:17;;;;;;;4.40;1.90;;;8.80;99.90;;;;;;5069508;28;20035;-66
2024/03/24 12:42:42;;;;;;;4.50;1.55;;;8.80;99.90;;;;;;5086850;28;20032;-66
2024/03/24 12:45:10;;;;;;;3.22;1.42;;;8.70;99.90;;;;;;5086911;28;20094;-66